createdAt,value
2019-01-03T15:48:47.487Z,1.40
2019-01-03T15:53:38.834Z,1.30
2019-01-03T15:58:30.249Z,1.30
2019-01-03T16:03:21.657Z,1.30
2019-01-03T16:08:12.986Z,1.20
2019-01-03T16:18:21.517Z,1.20
2019-01-03T16:23:12.860Z,1.30
2019-01-03T19:18:03.400Z,1.50
2019-01-03T19:22:54.748Z,1.50
2019-01-03T19:27:46.126Z,1.50
2019-01-03T19:32:37.542Z,1.50
2019-01-03T19:37:29.019Z,1.70
2019-01-03T19:37:29.167Z,1.70
2019-01-03T19:42:20.306Z,1.60
2019-01-03T19:47:11.806Z,1.50
2019-01-03T19:52:03.112Z,1.50
2019-01-03T19:56:56.717Z,1.50
2019-01-03T20:01:48.233Z,1.50
2019-01-03T20:06:39.675Z,1.50
2019-01-03T20:11:30.960Z,1.40
2019-01-03T20:16:22.475Z,1.60
2019-01-03T20:21:13.802Z,1.50
2019-01-03T20:26:05.388Z,1.60
2019-01-03T20:30:58.940Z,1.60
2019-01-03T20:35:50.480Z,1.60
2019-01-03T20:40:41.836Z,1.60
2019-01-03T20:45:33.267Z,1.60
2019-01-03T20:50:24.630Z,1.50
2019-01-03T20:55:16.082Z,1.50
2019-01-03T21:00:07.645Z,1.50
2019-01-03T21:05:01.116Z,1.40
2019-01-03T21:09:52.684Z,1.40
2019-01-03T21:14:44.056Z,1.30
2019-01-03T21:19:35.423Z,1.50
2019-01-03T21:24:26.952Z,1.30
2019-01-03T21:29:18.399Z,1.30
2019-01-03T21:34:09.748Z,1.40
2019-01-03T21:39:01.253Z,1.10
2019-01-03T21:43:52.654Z,1.30
2019-01-03T21:48:43.944Z,1.30
2019-01-03T21:53:35.397Z,1.30
2019-01-03T21:58:26.730Z,1.30
2019-01-03T22:03:18.152Z,1.30
2019-01-03T22:08:09.668Z,1.40
2019-01-03T22:13:00.999Z,1.30
2019-01-03T22:17:52.476Z,1.30
2019-01-03T22:22:43.854Z,1.20
2019-01-03T22:27:35.190Z,1.40
2019-01-03T22:32:26.630Z,1.10
2019-01-03T22:37:18.084Z,1.00
2019-01-03T22:42:09.444Z,0.90
2019-01-03T22:47:00.844Z,0.90
2019-01-03T22:51:52.229Z,0.90
2019-01-03T22:56:45.751Z,0.90
2019-01-03T23:01:37.255Z,1.00
2019-01-03T23:06:28.671Z,1.10
2019-01-03T23:11:20.072Z,1.00
2019-01-03T23:16:11.509Z,1.10
2019-01-03T23:21:02.988Z,1.20
2019-01-03T23:25:54.391Z,1.10
2019-01-03T23:30:45.867Z,1.10
2019-01-03T23:35:37.138Z,1.10
2019-01-03T23:40:28.559Z,1.10
2019-01-03T23:45:19.931Z,1.10
2019-01-03T23:50:11.326Z,1.10
2019-01-03T23:55:02.790Z,1.20
2019-01-03T23:59:54.085Z,1.20
